Time;durP1;ratioP1;P1;durP2;ratioP2;P2;SDS_P1;SDS_P2;PMS_P1;PMS_P2;Temp;Humidity;BMP_temperature;BMP_pressure;BME280_temperature;BME280_humidity;BME280_pressure;Samples;Min_cycle;Max_cycle;Signal;HPM_P1;HPM_P2
2021/09/10 00:01:08;;;;;;;;;;;21.60;90.30;;;;;;5051075;28;19970;-74
2021/09/10 00:03:33;;;;;;;;;;;21.60;90.50;;;;;;5055078;28;20019;-74
2021/09/10 00:05:58;;;;;;;;;;;21.60;90.30;;;;;;5055405;28;19974;-74
2021/09/10 00:08:24;;;;;;;;;;;21.50;90.60;;;;;;5057784;28;20738;-74
2021/09/10 00:10:49;;;;;;;;;;;21.40;90.70;;;;;;5040047;28;19954;-74
2021/09/10 00:13:15;;;;;;;;;;;21.40;90.70;;;;;;5056529;28;19912;-74
2021/09/10 00:15:40;;;;;;;;;;;21.40;90.70;;;;;;5058007;28;20345;-76
2021/09/10 00:18:06;;;;;;;;;;;21.40;90.70;;;;;;5054054;28;19923;-76
2021/09/10 00:20:31;;;;;;;;;;;21.40;90.90;;;;;;5056426;28;19923;-76
2021/09/10 00:22:56;;;;;;;;;;;21.40;90.90;;;;;;5055830;28;19913;-76
2021/09/10 00:25:22;;;;;;;;;;;21.40;90.90;;;;;;5055123;28;19917;-76
2021/09/10 00:27:47;;;;;;;;;;;21.50;90.90;;;;;;5058758;28;19916;-76
2021/09/10 00:30:13;;;;;;;;;;;21.50;90.90;;;;;;5061142;28;20267;-76
2021/09/10 00:32:38;;;;;;;;;;;21.50;91.00;;;;;;5054416;28;20388;-76
2021/09/10 00:35:04;;;;;;;;;;;21.40;91.20;;;;;;5057472;28;19935;-76
2021/09/10 00:37:30;;;;;;;;;;;21.40;91.10;;;;;;5058924;28;20841;-76
2021/09/10 00:39:55;;;;;;;;;;;21.40;91.20;;;;;;5057055;28;19917;-76
2021/09/10 00:42:20;;;;;;;;;;;21.30;91.30;;;;;;5056764;28;20398;-76
2021/09/10 00:44:46;;;;;;;;;;;21.20;91.40;;;;;;5057304;28;20334;-76
2021/09/10 00:47:12;;;;;;;;;;;21.20;91.40;;;;;;5060691;28;19912;-76
2021/09/10 00:49:37;;;;;;;;;;;21.10;91.60;;;;;;5059692;28;19935;-76
2021/09/10 00:52:03;;;;;;;;;;;20.90;91.60;;;;;;5059264;28;19913;-76
2021/09/10 00:54:28;;;;;;;;;;;21.00;91.80;;;;;;5061722;28;19920;-76
2021/09/10 00:56:54;;;;;;;;;;;21.10;91.80;;;;;;5056903;28;19917;-75
2021/09/10 00:59:19;;;;;;;;;;;21.10;91.90;;;;;;5060220;28;20440;-76
2021/09/10 01:01:45;;;;;;;;;;;21.10;91.90;;;;;;5058718;28;19916;-76
2021/09/10 01:04:10;;;;;;;;;;;21.00;91.90;;;;;;5056094;28;19923;-76
2021/09/10 01:06:36;;;;;;;;;;;21.00;92.20;;;;;;5056080;28;19951;-76
2021/09/10 01:09:01;;;;;;;;;;;21.00;92.10;;;;;;5061759;28;20329;-75
2021/09/10 01:11:27;;;;;;;;;;;21.10;92.00;;;;;;5057506;28;20363;-75
2021/09/10 01:13:54;;;;;;;;;;;21.10;92.00;;;;;;5061227;28;20443;-76
2021/09/10 01:16:20;;;;;;;;;;;21.20;91.90;;;;;;5058497;28;19970;-76
2021/09/10 01:18:45;;;;;;;;;;;21.10;91.90;;;;;;5054830;28;19908;-76
2021/09/10 01:21:11;;;;;;;;;;;21.20;91.90;;;;;;5042603;28;20835;-76
2021/09/10 01:23:36;;;;;;;;;;;21.20;92.00;;;;;;5056537;28;19916;-76
2021/09/10 01:26:02;;;;;;;;;;;21.20;91.90;;;;;;5054647;28;19935;-76
2021/09/10 01:28:27;;;;;;;;;;;21.20;91.90;;;;;;5058470;28;19916;-76
2021/09/10 01:30:53;;;;;;;;;;;21.20;92.10;;;;;;5059984;28;19913;-76
2021/09/10 01:33:18;;;;;;;;;;;21.20;92.00;;;;;;5054939;28;19909;-76
2021/09/10 01:35:44;;;;;;;;;;;21.20;92.10;;;;;;5057141;28;19920;-76
2021/09/10 01:38:09;;;;;;;;;;;21.20;92.10;;;;;;5062368;28;20263;-76
2021/09/10 01:40:35;;;;;;;;;;;21.10;92.30;;;;;;5059484;28;19916;-76
2021/09/10 01:43:01;;;;;;;;;;;21.10;92.50;;;;;;5055960;28;19981;-76
2021/09/10 01:45:26;;;;;;;;;;;21.00;92.40;;;;;;5061652;28;20426;-76
2021/09/10 01:47:52;;;;;;;;;;;21.00;92.50;;;;;;5060939;28;20456;-76
2021/09/10 01:50:18;;;;;;;;;;;21.10;92.30;;;;;;5055605;28;19948;-76
2021/09/10 01:52:44;;;;;;;;;;;21.10;92.30;;;;;;5055810;28;19958;-76
2021/09/10 01:55:12;;;;;;;;;;;21.10;92.30;;;;;;5060121;28;19912;-76
2021/09/10 01:57:37;;;;;;;;;;;21.10;92.20;;;;;;5059684;28;19912;-76
2021/09/10 02:00:03;;;;;;;;;;;21.10;92.20;;;;;;5060127;28;20393;-76
2021/09/10 02:02:29;;;;;;;;;;;21.10;92.30;;;;;;5057733;28;19924;-76
2021/09/10 02:04:54;;;;;;;;;;;21.10;92.30;;;;;;5059083;28;19916;-76
2021/09/10 02:07:19;;;;;;;;;;;21.10;92.60;;;;;;5059809;28;19921;-76
2021/09/10 02:09:45;;;;;;;;;;;21.10;92.30;;;;;;5055853;28;19986;-76
2021/09/10 02:12:10;;;;;;;;;;;21.10;92.20;;;;;;5056483;28;20805;-76
2021/09/10 02:14:36;;;;;;;;;;;21.10;92.40;;;;;;5056962;28;20382;-76
2021/09/10 02:17:02;;;;;;;;;;;21.10;92.40;;;;;;5059782;28;20347;-76
2021/09/10 02:19:28;;;;;;;;;;;21.10;92.50;;;;;;5058274;28;20289;-76
2021/09/10 02:21:53;;;;;;;;;;;21.10;92.40;;;;;;5061074;28;19909;-76
2021/09/10 02:24:18;;;;;;;;;;;21.10;92.40;;;;;;5055541;28;20035;-76
2021/09/10 02:26:44;;;;;;;;;;;21.10;92.20;;;;;;5058294;28;19909;-76
2021/09/10 02:29:09;;;;;;;;;;;21.10;92.30;;;;;;5055857;28;19920;-76
2021/09/10 02:31:35;;;;;;;;;;;21.10;92.30;;;;;;5058580;28;19960;-76
2021/09/10 02:34:01;;;;;;;;;;;21.10;92.30;;;;;;5059228;28;19912;-76
2021/09/10 02:36:26;;;;;;;;;;;21.10;92.40;;;;;;5059132;28;19917;-76
2021/09/10 02:38:52;;;;;;;;;;;21.10;92.40;;;;;;5054672;28;19939;-76
2021/09/10 02:41:18;;;;;;;;;;;21.10;92.70;;;;;;5058536;28;19912;-76
2021/09/10 02:43:43;;;;;;;;;;;21.10;92.40;;;;;;5055280;28;19958;-76
2021/09/10 02:46:09;;;;;;;;;;;21.00;92.40;;;;;;5057500;28;19920;-77
2021/09/10 02:48:34;;;;;;;;;;;21.00;92.50;;;;;;5039629;28;19958;-76
2021/09/10 02:51:00;;;;;;;;;;;21.00;92.50;;;;;;5055027;28;19912;-76
2021/09/10 02:53:25;;;;;;;;;;;21.00;92.60;;;;;;5063785;28;19912;-76
2021/09/10 02:55:51;;;;;;;;;;;21.10;92.60;;;;;;5056233;28;20003;-76
2021/09/10 02:58:16;;;;;;;;;;;21.00;92.70;;;;;;5054709;28;19927;-77
2021/09/10 03:00:42;;;;;;;;;;;20.90;92.90;;;;;;5053686;28;19913;-76
2021/09/10 03:03:07;;;;;;;;;;;20.80;92.70;;;;;;5058806;28;19909;-76
2021/09/10 03:05:33;;;;;;;;;;;20.80;92.80;;;;;;5058843;28;19917;-76
2021/09/10 03:07:58;;;;;;;;;;;20.80;93.00;;;;;;5059474;28;19908;-76
2021/09/10 03:10:24;;;;;;;;;;;20.80;93.00;;;;;;5057209;28;20581;-76
2021/09/10 03:12:49;;;;;;;;;;;20.90;93.00;;;;;;5057778;28;19959;-76
2021/09/10 03:15:15;;;;;;;;;;;20.90;92.90;;;;;;5056579;28;19924;-76
2021/09/10 03:17:40;;;;;;;;;;;20.80;93.10;;;;;;5052360;28;19917;-76
2021/09/10 03:20:07;;;;;;;;;;;20.80;93.20;;;;;;5059458;28;19909;-76
2021/09/10 03:22:32;;;;;;;;;;;20.70;93.40;;;;;;5055735;28;20427;-76
2021/09/10 03:24:58;;;;;;;;;;;20.70;93.50;;;;;;5057808;28;20004;-76
2021/09/10 03:27:23;;;;;;;;;;;20.60;93.60;;;;;;5059450;28;19912;-76
2021/09/10 03:29:49;;;;;;;;;;;20.60;93.60;;;;;;5060738;28;20004;-76
2021/09/10 03:32:14;;;;;;;;;;;20.50;93.70;;;;;;5053604;28;20443;-76
2021/09/10 03:34:39;;;;;;;;;;;20.60;93.80;;;;;;5055863;28;20290;-76
2021/09/10 03:37:06;;;;;;;;;;;20.60;93.80;;;;;;5040988;28;19916;-76
2021/09/10 03:39:32;;;;;;;;;;;20.60;93.80;;;;;;5056190;28;20456;-76
2021/09/10 03:41:57;;;;;;;;;;;20.70;93.90;;;;;;5057802;28;19992;-76
2021/09/10 03:44:22;;;;;;;;;;;20.80;93.90;;;;;;5055741;28;19925;-76
2021/09/10 03:46:48;;;;;;;;;;;20.80;93.90;;;;;;5056232;28;19917;-77
2021/09/10 03:49:13;;;;;;;;;;;20.80;94.00;;;;;;5054890;28;19917;-77
2021/09/10 03:51:39;;;;;;;;;;;20.80;94.10;;;;;;5055624;28;19958;-77
2021/09/10 03:54:04;;;;;;;;;;;20.80;94.40;;;;;;5056852;28;19924;-77
2021/09/10 03:56:30;;;;;;;;;;;20.80;94.70;;;;;;5056508;28;19970;-77
2021/09/10 03:58:55;;;;;;;;;;;20.70;95.00;;;;;;5055987;28;19920;-77
2021/09/10 04:01:20;;;;;;;;;;;20.60;95.10;;;;;;5053561;28;19916;-77
2021/09/10 04:03:46;;;;;;;;;;;20.50;95.40;;;;;;5057191;28;20395;-77
2021/09/10 04:06:11;;;;;;;;;;;20.50;95.50;;;;;;5054212;28;19916;-77
2021/09/10 04:08:37;;;;;;;;;;;20.40;95.90;;;;;;5059243;28;20355;-77
2021/09/10 04:11:03;;;;;;;;;;;20.40;96.00;;;;;;5054519;28;19966;-77
2021/09/10 04:13:28;;;;;;;;;;;20.40;95.90;;;;;;5054360;28;19916;-81
2021/09/10 04:15:53;;;;;;;;;;;20.50;96.70;;;;;;5061002;28;19917;-81
2021/09/10 04:18:19;;;;;;;;;;;20.30;97.10;;;;;;5059965;28;19995;-79
2021/09/10 04:20:44;;;;;;;;;;;20.10;97.80;;;;;;5055848;28;20008;-80
2021/09/10 04:23:10;;;;;;;;;;;20.00;97.90;;;;;;5058181;28;19923;-81
2021/09/10 04:25:35;;;;;;;;;;;19.90;98.20;;;;;;5055123;28;20003;-81
2021/09/10 04:28:01;;;;;;;;;;;19.80;98.30;;;;;;5053350;28;19909;-82
2021/09/10 04:30:26;;;;;;;;;;;19.70;98.50;;;;;;5058237;28;20325;-82
2021/09/10 04:32:51;;;;;;;;;;;19.60;98.50;;;;;;5056007;28;20379;-82
2021/09/10 04:35:17;;;;;;;;;;;19.50;98.80;;;;;;5055348;28;20391;-83
2021/09/10 04:37:43;;;;;;;;;;;19.50;99.20;;;;;;5049623;28;20409;-83
2021/09/10 04:40:09;;;;;;;;;;;19.50;99.20;;;;;;5068600;28;19909;-83
2021/09/10 04:42:35;;;;;;;;;;;19.50;99.40;;;;;;5050076;28;19909;-83
2021/09/10 04:45:01;;;;;;;;;;;19.50;99.30;;;;;;5057356;28;20385;-83
2021/09/10 04:47:26;;;;;;;;;;;19.40;98.90;;;;;;5063826;28;19912;-83
2021/09/10 04:49:52;;;;;;;;;;;19.30;98.60;;;;;;5046646;28;19916;-83
2021/09/10 04:52:18;;;;;;;;;;;19.30;99.00;;;;;;5044977;28;20050;-83
2021/09/10 04:54:43;;;;;;;;;;;19.30;99.40;;;;;;5063474;28;19935;-82
2021/09/10 04:57:08;;;;;;;;;;;19.40;99.60;;;;;;5062176;28;20521;-83
2021/09/10 04:59:34;;;;;;;;;;;19.40;99.70;;;;;;5058063;28;20356;-82
2021/09/10 05:01:59;;;;;;;;;;;19.50;99.80;;;;;;5067764;28;20003;-84
2021/09/10 05:04:25;;;;;;;;;;;19.50;99.80;;;;;;5054087;28;19916;-84
2021/09/10 05:06:51;;;;;;;;;;;19.50;99.90;;;;;;5055041;28;19966;-83
2021/09/10 05:09:16;;;;;;;;;;;19.50;99.90;;;;;;5059915;28;19921;-84
2021/09/10 05:11:42;;;;;;;;;;;19.60;99.90;;;;;;5053784;28;20294;-81
2021/09/10 05:14:09;;;;;;;;;;;19.60;99.90;;;;;;5051291;28;19917;-81
2021/09/10 05:16:36;;;;;;;;;;;19.60;99.90;;;;;;5056262;28;19925;-80
2021/09/10 05:19:01;;;;;;;;;;;19.60;99.90;;;;;;5057216;28;19916;-80
2021/09/10 05:21:27;;;;;;;;;;;19.60;99.90;;;;;;5058591;28;19909;-80
2021/09/10 05:23:52;;;;;;;;;;;19.60;99.90;;;;;;5038890;28;20394;-80
2021/09/10 05:26:18;;;;;;;;;;;19.70;99.90;;;;;;5054389;28;19978;-80
2021/09/10 05:28:44;;;;;;;;;;;19.60;99.90;;;;;;5056908;28;20332;-80
2021/09/10 05:31:09;;;;;;;;;;;19.60;99.90;;;;;;5056293;28;19924;-80
2021/09/10 05:33:35;;;;;;;;;;;19.60;99.90;;;;;;5057843;28;19913;-80
2021/09/10 05:36:00;;;;;;;;;;;19.60;99.90;;;;;;5057553;28;20335;-79
2021/09/10 05:38:26;;;;;;;;;;;19.70;99.90;;;;;;5056957;28;19921;-79
2021/09/10 05:40:51;;;;;;;;;;;19.70;99.90;;;;;;5059681;28;19923;-79
2021/09/10 05:43:17;;;;;;;;;;;19.60;99.90;;;;;;5058480;28;19920;-78
2021/09/10 05:45:42;;;;;;;;;;;19.60;99.90;;;;;;5058855;28;19912;-77
2021/09/10 05:48:08;;;;;;;;;;;19.60;99.90;;;;;;5058977;28;19913;-77
2021/09/10 05:50:33;;;;;;;;;;;19.60;99.90;;;;;;5058213;28;20011;-77
2021/09/10 05:53:02;;;;;;;;;;;19.50;99.90;;;;;;5071861;28;20788;-77
2021/09/10 05:55:28;;;;;;;;;;;19.50;99.90;;;;;;5071583;28;19921;-78
2021/09/10 05:57:53;;;;;;;;;;;19.60;99.90;;;;;;5058997;28;19913;-78
2021/09/10 06:00:19;;;;;;;;;;;19.60;99.90;;;;;;5054959;28;19920;-77
2021/09/10 06:02:44;;;;;;;;;;;19.60;99.90;;;;;;5055147;28;19916;-79
2021/09/10 06:05:10;;;;;;;;;;;19.70;99.90;;;;;;5070573;28;20286;-75
2021/09/10 06:07:35;;;;;;;;;;;19.70;99.90;;;;;;5058592;28;19916;-75
2021/09/10 06:10:01;;;;;;;;;;;19.70;99.90;;;;;;5057266;28;20376;-75
2021/09/10 06:12:26;;;;;;;;;;;19.70;99.90;;;;;;5058985;28;19923;-75
2021/09/10 06:14:51;;;;;;;;;;;19.70;99.90;;;;;;5055833;28;19920;-77
2021/09/10 06:17:17;;;;;;;;;;;19.70;99.90;;;;;;5058012;28;20414;-78
2021/09/10 06:19:42;;;;;;;;;;;19.80;99.90;;;;;;5057364;28;20393;-77
2021/09/10 06:22:08;;;;;;;;;;;19.80;99.90;;;;;;5054331;28;20015;-78
2021/09/10 06:24:33;;;;;;;;;;;19.80;99.90;;;;;;5055381;28;20451;-77
2021/09/10 06:26:59;;;;;;;;;;;19.80;99.90;;;;;;5056469;28;19921;-76
2021/09/10 06:29:24;;;;;;;;;;;19.90;99.90;;;;;;5054652;28;20306;-80
2021/09/10 06:31:50;;;;;;;;;;;19.90;99.90;;;;;;5054369;28;19912;-76
2021/09/10 06:34:21;;;;;;;;;;;19.90;99.90;;;;;;5055071;28;19917;-74
2021/09/10 06:36:49;;;;;;;;;;;19.90;99.90;;;;;;5056961;28;20023;-74
2021/09/10 06:39:15;;;;;;;;;;;19.90;99.90;;;;;;5058520;28;20011;-75
2021/09/10 06:41:40;;;;;;;;;;;19.90;99.90;;;;;;5056859;28;19935;-75
2021/09/10 06:44:06;;;;;;;;;;;19.90;99.90;;;;;;5056516;28;20414;-75
2021/09/10 06:46:31;;;;;;;;;;;20.00;99.90;;;;;;5055909;28;20448;-75
2021/09/10 06:48:57;;;;;;;;;;;20.00;99.90;;;;;;5058263;28;19951;-75
2021/09/10 06:51:22;;;;;;;;;;;20.00;99.90;;;;;;5054995;28;19912;-74
2021/09/10 06:53:47;;;;;;;;;;;20.00;99.90;;;;;;5056922;28;19912;-76
2021/09/10 06:56:13;;;;;;;;;;;20.00;99.90;;;;;;5054817;28;19963;-75
2021/09/10 06:58:38;;;;;;;;;;;20.00;99.90;;;;;;5055711;28;20390;-77
2021/09/10 07:01:05;;;;;;;;;;;20.10;99.90;;;;;;5057630;28;19916;-76
2021/09/10 07:03:31;;;;;;;;;;;20.10;99.90;;;;;;5053528;28;19932;-76
2021/09/10 07:05:56;;;;;;;;;;;20.10;99.90;;;;;;5056334;28;20358;-77
2021/09/10 07:08:22;;;;;;;;;;;20.10;99.90;;;;;;5056589;28;19936;-76
2021/09/10 07:10:47;;;;;;;;;;;20.20;99.90;;;;;;5056318;28;20059;-76
2021/09/10 07:13:13;;;;;;;;;;;20.30;99.90;;;;;;5055928;28;19925;-76
2021/09/10 07:15:39;;;;;;;;;;;20.30;99.90;;;;;;5053925;28;19924;-78
2021/09/10 07:18:05;;;;;;;;;;;20.30;99.90;;;;;;5055316;28;20287;-78
2021/09/10 07:20:30;;;;;;;;;;;20.30;99.90;;;;;;5055775;28;19984;-80
2021/09/10 07:22:56;;;;;;;;;;;20.40;99.90;;;;;;5056842;28;19932;-79
2021/09/10 07:25:21;;;;;;;;;;;20.40;99.90;;;;;;5056980;28;19917;-79
2021/09/10 07:27:47;;;;;;;;;;;20.40;99.90;;;;;;5057160;28;19939;-79
2021/09/10 07:30:12;;;;;;;;;;;20.50;99.90;;;;;;5057081;28;19924;-77
2021/09/10 07:32:38;;;;;;;;;;;20.50;99.90;;;;;;5056433;28;19913;-77
2021/09/10 07:35:04;;;;;;;;;;;20.60;99.90;;;;;;5056911;28;19912;-79
2021/09/10 07:37:30;;;;;;;;;;;20.60;99.90;;;;;;5056277;28;20367;-78
2021/09/10 07:39:56;;;;;;;;;;;20.70;99.90;;;;;;5054153;28;19970;-78
2021/09/10 07:42:21;;;;;;;;;;;20.80;99.90;;;;;;5055258;28;19912;-78
2021/09/10 07:44:47;;;;;;;;;;;20.80;99.90;;;;;;5057068;28;19921;-79
2021/09/10 07:47:13;;;;;;;;;;;20.90;99.90;;;;;;5058181;28;20354;-79
2021/09/10 07:49:38;;;;;;;;;;;20.90;99.90;;;;;;5055831;28;19952;-78
2021/09/10 07:52:04;;;;;;;;;;;21.00;99.90;;;;;;5056389;28;20328;-80
2021/09/10 07:54:32;;;;;;;;;;;21.10;99.90;;;;;;5057017;28;20012;-76
2021/09/10 07:56:57;;;;;;;;;;;21.10;99.90;;;;;;5059376;28;19920;-77
2021/09/10 07:59:23;;;;;;;;;;;21.20;99.90;;;;;;5058642;28;19920;-76
2021/09/10 08:01:48;;;;;;;;;;;21.30;99.90;;;;;;5060937;28;19908;-77
2021/09/10 08:04:14;;;;;;;;;;;21.40;99.90;;;;;;5058359;28;19912;-77
2021/09/10 08:06:39;;;;;;;;;;;21.50;99.90;;;;;;5057807;28;19916;-79
2021/09/10 08:09:05;;;;;;;;;;;21.60;99.90;;;;;;5061185;28;19920;-76
2021/09/10 08:11:33;;;;;;;;;;;21.70;99.90;;;;;;5062016;28;19923;-77
2021/09/10 08:13:58;;;;;;;;;;;21.70;99.80;;;;;;5058167;28;19920;-79
2021/09/10 08:16:24;;;;;;;;;;;21.80;99.90;;;;;;5058733;28;19921;-79
2021/09/10 08:18:50;;;;;;;;;;;21.80;99.80;;;;;;5058258;28;19913;-80
2021/09/10 08:21:15;;;;;;;;;;;21.90;99.70;;;;;;5056285;28;19929;-79
2021/09/10 08:23:40;;;;;;;;;;;22.00;99.70;;;;;;5060428;28;19966;-79
2021/09/10 08:26:06;;;;;;;;;;;22.10;99.50;;;;;;5056947;28;19962;-78
2021/09/10 08:28:31;;;;;;;;;;;22.20;99.50;;;;;;5057066;28;19916;-76
2021/09/10 08:30:57;;;;;;;;;;;22.20;99.30;;;;;;5057134;28;19920;-80
2021/09/10 08:33:24;;;;;;;;;;;22.30;99.30;;;;;;5056935;28;20007;-85
2021/09/10 08:35:49;;;;;;;;;;;22.40;99.10;;;;;;5056936;28;19917;-78
2021/09/10 08:38:15;;;;;;;;;;;22.50;98.70;;;;;;5059932;28;19958;-78
2021/09/10 08:40:41;;;;;;;;;;;22.60;98.50;;;;;;5058171;28;19924;-77
2021/09/10 08:43:06;;;;;;;;;;;22.60;97.90;;;;;;5059491;28;19923;-77
2021/09/10 08:45:32;;;;;;;;;;;22.70;97.80;;;;;;5043434;28;20543;-76
2021/09/10 08:47:57;;;;;;;;;;;22.80;97.60;;;;;;5057804;28;19925;-77
2021/09/10 08:50:23;;;;;;;;;;;22.80;97.50;;;;;;5060125;28;19921;-77
2021/09/10 08:52:50;;;;;;;;;;;22.90;97.30;;;;;;5059483;28;19962;-77
2021/09/10 08:55:16;;;;;;;;;;;23.00;96.80;;;;;;5057441;28;19928;-78
2021/09/10 08:57:52;;;;;;;;;;;23.20;96.70;;;;;;5075029;28;19966;-77
2021/09/10 09:00:25;;;;;;;;;;;23.30;96.50;;;;;;5056629;28;19923;-78
2021/09/10 09:03:07;;;;;;;;;;;23.40;96.40;;;;;;5057967;28;19921;-78
2021/09/10 09:05:33;;;;;;;;;;;23.50;96.30;;;;;;5058598;28;19923;-78
2021/09/10 09:08:09;;;;;;;;;;;23.60;96.10;;;;;;5057352;28;19928;-77
2021/09/10 09:10:53;;;;;;;;;;;23.70;96.00;;;;;;5059891;28;19923;-78
2021/09/10 09:13:19;;;;;;;;;;;23.80;95.80;;;;;;5058130;28;19932;-79
2021/09/10 09:15:46;;;;;;;;;;;23.90;95.50;;;;;;5055356;28;21403;-78
2021/09/10 09:18:12;;;;;;;;;;;24.10;95.20;;;;;;5059000;28;20252;-79
2021/09/10 09:20:37;;;;;;;;;;;24.20;94.60;;;;;;5058859;28;19913;-77
2021/09/10 09:23:04;;;;;;;;;;;24.40;94.80;;;;;;5058142;28;19909;-77
2021/09/10 09:25:56;;;;;;;;;;;24.40;94.70;;;;;;5058022;28;19931;-77
2021/09/10 09:28:29;;;;;;;;;;;24.50;94.10;;;;;;5057177;28;19971;-81
2021/09/10 09:30:55;;;;;;;;;;;24.70;93.50;;;;;;5059139;28;20007;-75
2021/09/10 09:33:25;;;;;;;;;;;24.70;93.10;;;;;;5055217;28;20000;-75
2021/09/10 09:35:51;;;;;;;;;;;24.80;92.80;;;;;;5056999;28;19920;-75
2021/09/10 09:38:18;;;;;;;;;;;24.90;92.90;;;;;;5057609;28;19931;-72
2021/09/10 09:40:44;;;;;;;;;;;25.00;92.60;;;;;;5057771;28;19916;-77
2021/09/10 09:43:12;;;;;;;;;;;25.10;92.10;;;;;;5058754;28;20310;-76
2021/09/10 09:45:37;;;;;;;;;;;25.10;92.20;;;;;;5057996;28;19944;-77
2021/09/10 09:48:07;;;;;;;;;;;25.00;92.50;;;;;;5059202;28;19963;-76
2021/09/10 09:50:34;;;;;;;;;;;24.90;92.40;;;;;;5054928;28;20009;-75
2021/09/10 09:53:01;;;;;;;;;;;24.90;92.40;;;;;;5058792;28;20038;-76
2021/09/10 09:55:27;;;;;;;;;;;25.00;92.50;;;;;;5056318;28;20720;-76
2021/09/10 09:57:53;;;;;;;;;;;25.00;92.20;;;;;;5060573;28;19909;-76
2021/09/10 10:00:18;;;;;;;;;;;25.10;92.00;;;;;;5057748;28;19913;-78
2021/09/10 10:02:44;;;;;;;;;;;25.20;92.40;;;;;;5058289;28;19908;-79
2021/09/10 10:05:09;;;;;;;;;;;25.30;92.00;;;;;;5054066;28;19916;-76
2021/09/10 10:07:56;;;;;;;;;;;25.40;91.80;;;;;;5057752;28;19916;-77
2021/09/10 10:10:24;;;;;;;;;;;25.40;91.90;;;;;;5058292;28;19920;-74
2021/09/10 10:12:50;;;;;;;;;;;25.30;91.60;;;;;;5058026;28;19925;-74
2021/09/10 10:15:19;;;;;;;;;;;25.30;91.80;;;;;;5053958;28;19951;-76
2021/09/10 10:17:45;;;;;;;;;;;25.30;91.70;;;;;;5058307;28;19913;-76
2021/09/10 10:20:14;;;;;;;;;;;25.30;91.70;;;;;;5058760;28;19919;-76
2021/09/10 10:22:40;;;;;;;;;;;25.20;91.10;;;;;;5045466;28;19917;-83
2021/09/10 10:25:07;;;;;;;;;;;25.10;91.20;;;;;;5052280;28;19917;-83
2021/09/10 10:27:34;;;;;;;;;;;24.90;91.70;;;;;;5054883;28;19965;-82
2021/09/10 10:30:02;;;;;;;;;;;25.10;91.80;;;;;;5056938;28;19936;-82
2021/09/10 10:32:29;;;;;;;;;;;25.10;91.70;;;;;;5056473;28;19912;-82
2021/09/10 10:35:15;;;;;;;;;;;25.20;91.60;;;;;;5056052;28;20321;-82
2021/09/10 10:37:44;;;;;;;;;;;25.10;91.80;;;;;;5058390;28;19913;-82
2021/09/10 10:40:28;;;;;;;;;;;25.20;91.80;;;;;;5059400;28;19908;-82
2021/09/10 10:42:55;;;;;;;;;;;25.30;91.80;;;;;;5057399;28;19931;-82
2021/09/10 10:45:58;;;;;;;;;;;25.40;91.60;;;;;;5055964;28;20283;-82
2021/09/10 10:48:30;;;;;;;;;;;25.50;91.60;;;;;;5052603;28;19939;-84
2021/09/10 10:50:56;;;;;;;;;;;25.60;91.40;;;;;;5053968;28;20031;-83
2021/09/10 10:53:24;;;;;;;;;;;25.50;91.30;;;;;;5053879;28;20236;-82
2021/09/10 10:55:50;;;;;;;;;;;25.30;91.50;;;;;;5055102;28;20029;-83
2021/09/10 10:58:22;;;;;;;;;;;25.30;91.60;;;;;;5057529;28;19956;-82
2021/09/10 11:00:48;;;;;;;;;;;25.10;91.70;;;;;;5051533;28;19978;-84
2021/09/10 11:03:14;;;;;;;;;;;25.10;92.10;;;;;;5056974;28;20402;-80
2021/09/10 11:05:40;;;;;;;;;;;25.00;91.90;;;;;;5053329;28;19940;-80
2021/09/10 11:08:05;;;;;;;;;;;24.90;91.90;;;;;;5057902;28;19909;-80
2021/09/10 11:10:31;;;;;;;;;;;24.80;92.30;;;;;;5056823;28;20355;-79
2021/09/10 11:12:58;;;;;;;;;;;24.70;92.50;;;;;;5056281;28;20011;-81
2021/09/10 11:15:23;;;;;;;;;;;24.70;92.60;;;;;;5054529;28;20383;-79
2021/09/10 11:17:56;;;;;;;;;;;24.80;92.70;;;;;;5056245;28;19961;-79
2021/09/10 11:20:29;;;;;;;;;;;24.80;92.70;;;;;;5057729;28;19915;-82
2021/09/10 11:22:54;;;;;;;;;;;24.70;93.90;;;;;;5055239;28;19919;-74
2021/09/10 11:25:20;;;;;;;;;;;24.10;95.60;;;;;;5055373;28;19916;-81
2021/09/10 11:27:45;;;;;;;;;;;23.30;95.70;;;;;;5057547;28;19918;-80
2021/09/10 11:30:12;;;;;;;;;;;22.50;97.40;;;;;;5056478;28;20374;-76
2021/09/10 11:32:38;;;;;;;;;;;22.20;98.80;;;;;;5057197;28;19921;-76
2021/09/10 11:35:42;;;;;;;;;;;22.00;99.10;;;;;;5054434;28;20232;-76
2021/09/10 11:38:09;;;;;;;;;;;21.90;99.20;;;;;;5054928;28;19912;-76
2021/09/10 11:40:39;;;;;;;;;;;21.80;99.50;;;;;;5054827;28;19920;-75
2021/09/10 11:43:11;;;;;;;;;;;21.70;99.80;;;;;;5054790;28;19955;-75
2021/09/10 11:45:42;;;;;;;;;;;21.80;99.90;;;;;;5057408;28;19916;-75
2021/09/10 11:48:08;;;;;;;;;;;21.80;99.90;;;;;;5056314;28;20247;-75
2021/09/10 11:50:44;;;;;;;;;;;21.90;99.90;;;;;;5052806;28;19916;-76
2021/09/10 11:53:33;;;;;;;;;;;22.00;99.90;;;;;;5055138;28;19916;-76
2021/09/10 11:56:01;;;;;;;;;;;22.10;99.90;;;;;;5048505;28;19916;-74
2021/09/10 11:58:45;;;;;;;;;;;22.30;99.90;;;;;;5055913;28;19979;-75
2021/09/10 12:01:21;;;;;;;;;;;22.40;99.90;;;;;;5055232;28;20330;-75
2021/09/10 12:03:48;;;;;;;;;;;22.60;99.90;;;;;;5038797;28;19920;-75
2021/09/10 12:06:17;;;;;;;;;;;22.70;99.90;;;;;;5056407;28;20359;-76
2021/09/10 12:09:01;;;;;;;;;;;22.90;99.90;;;;;;5056796;28;19917;-78
2021/09/10 12:11:27;;;;;;;;;;;23.00;99.70;;;;;;5054771;28;20057;-76
2021/09/10 12:13:53;;;;;;;;;;;23.20;99.60;;;;;;5054359;28;19917;-76
2021/09/10 12:16:18;;;;;;;;;;;23.40;99.40;;;;;;5056810;28;20306;-76
2021/09/10 12:19:03;;;;;;;;;;;23.80;99.20;;;;;;5057517;28;19915;-76
2021/09/10 12:21:29;;;;;;;;;;;24.00;99.10;;;;;;5055156;28;19923;-80
2021/09/10 12:24:10;;;;;;;;;;;24.20;98.80;;;;;;5055302;28;20272;-76
2021/09/10 12:26:49;;;;;;;;;;;24.40;98.40;;;;;;5057811;28;19917;-76
2021/09/10 12:29:25;;;;;;;;;;;24.50;98.10;;;;;;5039141;28;20287;-77
2021/09/10 12:31:54;;;;;;;;;;;24.50;97.20;;;;;;5054756;28;19916;-76
2021/09/10 12:34:20;;;;;;;;;;;24.60;97.00;;;;;;5056071;28;19956;-77
2021/09/10 12:36:51;;;;;;;;;;;24.60;96.90;;;;;;5060528;28;19982;-76
2021/09/10 12:39:17;;;;;;;;;;;24.50;96.60;;;;;;5059824;28;19917;-75
2021/09/10 12:41:43;;;;;;;;;;;24.40;96.50;;;;;;5058228;28;19913;-80
2021/09/10 12:44:09;;;;;;;;;;;24.30;96.80;;;;;;5057681;28;20344;-78
2021/09/10 12:46:35;;;;;;;;;;;24.30;96.80;;;;;;5059841;28;19916;-80
2021/09/10 12:49:01;;;;;;;;;;;24.20;96.70;;;;;;5042188;28;19908;-77
2021/09/10 12:51:26;;;;;;;;;;;24.10;96.30;;;;;;5060007;28;19961;-78
2021/09/10 12:53:52;;;;;;;;;;;24.00;96.60;;;;;;5053142;28;19916;-85
2021/09/10 12:56:17;;;;;;;;;;;23.90;96.90;;;;;;5055273;28;19920;-84
2021/09/10 12:58:43;;;;;;;;;;;23.80;97.20;;;;;;5058234;28;19908;-86
2021/09/10 13:01:08;;;;;;;;;;;23.70;97.50;;;;;;5061447;28;19923;-86
2021/09/10 13:03:34;;;;;;;;;;;23.60;97.50;;;;;;5061667;28;19913;-86
2021/09/10 13:05:59;;;;;;;;;;;23.50;97.50;;;;;;5059200;28;19919;-86
2021/09/10 13:08:24;;;;;;;;;;;23.40;97.70;;;;;;5056843;28;20020;-86
2021/09/10 13:10:50;;;;;;;;;;;23.30;98.00;;;;;;5059748;28;20272;-87
2021/09/10 13:13:16;;;;;;;;;;;23.20;98.30;;;;;;5060393;28;19967;-87
2021/09/10 13:15:42;;;;;;;;;;;23.00;98.50;;;;;;5060612;28;20017;-87
2021/09/10 13:18:08;;;;;;;;;;;22.80;98.70;;;;;;5060936;28;19916;-86
2021/09/10 13:20:33;;;;;;;;;;;22.80;98.80;;;;;;5061018;28;19974;-87
2021/09/10 13:22:58;;;;;;;;;;;22.60;98.90;;;;;;5057957;28;19913;-87
2021/09/10 13:25:24;;;;;;;;;;;22.50;98.90;;;;;;5060238;28;20371;-87
2021/09/10 13:27:50;;;;;;;;;;;22.50;98.90;;;;;;5063291;28;20379;-87
2021/09/10 13:30:20;;;;;;;;;;;22.40;99.10;;;;;;5056943;28;19974;-87
2021/09/10 13:32:46;;;;;;;;;;;22.40;99.00;;;;;;5065243;28;19989;-87
2021/09/10 13:35:11;;;;;;;;;;;22.30;99.00;;;;;;5058389;28;19920;-74
2021/09/10 13:37:37;;;;;;;;;;;22.20;99.10;;;;;;5052663;28;19913;-75
2021/09/10 13:40:02;;;;;;;;;;;22.20;99.10;;;;;;5061178;28;19912;-75
2021/09/10 13:42:28;;;;;;;;;;;22.30;99.10;;;;;;5060114;28;20389;-74
2021/09/10 13:44:53;;;;;;;;;;;22.40;99.00;;;;;;5063158;28;20463;-74
2021/09/10 13:47:21;;;;;;;;;;;22.40;99.00;;;;;;5058055;28;19912;-74
2021/09/10 13:49:46;;;;;;;;;;;22.50;99.00;;;;;;5055423;28;19951;-73
2021/09/10 13:52:12;;;;;;;;;;;22.60;98.90;;;;;;5058351;28;19936;-72
2021/09/10 13:54:37;;;;;;;;;;;22.70;98.90;;;;;;5043232;28;19912;-72
2021/09/10 13:57:03;;;;;;;;;;;22.70;98.70;;;;;;5060744;28;19943;-72
2021/09/10 13:59:29;;;;;;;;;;;22.70;98.70;;;;;;5059464;28;19923;-73
2021/09/10 14:01:55;;;;;;;;;;;22.70;98.50;;;;;;5059525;28;19954;-73
2021/09/10 14:04:21;;;;;;;;;;;22.70;98.30;;;;;;5059325;28;19921;-72
2021/09/10 14:06:46;;;;;;;;;;;22.70;98.40;;;;;;5057680;28;20448;-72
2021/09/10 14:09:12;;;;;;;;;;;22.60;98.30;;;;;;5053988;28;19938;-72
2021/09/10 14:11:37;;;;;;;;;;;22.50;98.20;;;;;;5056378;28;19912;-72
2021/09/10 14:14:02;;;;;;;;;;;22.60;98.40;;;;;;5058768;28;19981;-72